Time;durP1;ratioP1;P1;durP2;ratioP2;P2;SDS_P1;SDS_P2;PMS_P1;PMS_P2;Temp;Humidity;BMP_temperature;BMP_pressure;BME280_temperature;BME280_humidity;BME280_pressure;Samples;Min_cycle;Max_cycle;Signal;HPM_P1;HPM_P2
2024/01/07 00:01:54;;;;;;;13.40;10.60;;;2.50;76.40;;;;;;5083122;28;20575;-64
2024/01/07 00:04:20;;;;;;;12.40;11.10;;;2.50;77.20;;;;;;5074791;28;20204;-64
2024/01/07 00:06:47;;;;;;;12.43;11.13;;;2.50;77.60;;;;;;5084311;28;20687;-62
2024/01/07 00:09:13;;;;;;;13.90;11.87;;;2.60;76.50;;;;;;5083434;28;20248;-64
2024/01/07 00:11:40;;;;;;;13.53;12.00;;;2.50;76.80;;;;;;5083453;28;20203;-64
2024/01/07 00:14:06;;;;;;;14.27;11.87;;;2.40;77.00;;;;;;5079771;28;20258;-63
2024/01/07 00:16:33;;;;;;;11.70;10.60;;;2.60;78.10;;;;;;5076467;28;20727;-64
2024/01/07 00:19:00;;;;;;;13.00;11.30;;;2.50;77.00;;;;;;5085095;28;20207;-62
2024/01/07 00:21:27;;;;;;;12.57;11.27;;;2.50;76.80;;;;;;5083959;28;20207;-63
2024/01/07 00:23:54;;;;;;;11.83;10.67;;;2.50;77.40;;;;;;5079894;28;20663;-64
2024/01/07 00:26:20;;;;;;;12.67;11.37;;;2.50;77.00;;;;;;5085028;28;20284;-65
2024/01/07 00:28:47;;;;;;;13.27;10.60;;;2.60;76.30;;;;;;5075352;28;20251;-65
2024/01/07 00:31:13;;;;;;;11.70;10.50;;;2.70;77.40;;;;;;5085799;28;20548;-65
2024/01/07 00:33:40;;;;;;;14.73;12.03;;;2.50;76.40;;;;;;5079036;28;20204;-65
2024/01/07 00:36:06;;;;;;;12.40;11.10;;;2.50;77.50;;;;;;5081414;28;20643;-65
2024/01/07 00:38:33;;;;;;;12.93;11.57;;;2.50;77.60;;;;;;5085553;28;20616;-64
2024/01/07 00:40:59;;;;;;;11.87;10.67;;;2.40;77.20;;;;;;5082135;28;20274;-64
2024/01/07 00:43:26;;;;;;;11.80;10.70;;;2.50;77.00;;;;;;5084682;28;20278;-64
2024/01/07 00:45:53;;;;;;;12.20;10.63;;;2.50;77.10;;;;;;5093763;28;20630;-64
2024/01/07 00:48:18;;;;;;;12.97;11.73;;;2.50;77.10;;;;;;5085613;28;20265;-65
2024/01/07 00:50:45;;;;;;;12.57;11.27;;;2.50;77.00;;;;;;5082421;28;20232;-63
2024/01/07 00:53:11;;;;;;;11.57;10.37;;;2.50;76.60;;;;;;5082321;28;20216;-63
2024/01/07 00:55:38;;;;;;;12.43;11.13;;;2.40;76.60;;;;;;5086043;28;20290;-63
2024/01/07 00:58:04;;;;;;;11.07;9.97;;;2.40;77.20;;;;;;5078250;28;20212;-63
2024/01/07 01:00:31;;;;;;;11.83;10.63;;;2.50;77.30;;;;;;5084703;28;20694;-65
2024/01/07 01:02:58;;;;;;;11.17;10.03;;;2.50;77.00;;;;;;5085994;28;20296;-66
2024/01/07 01:05:24;;;;;;;12.70;11.40;;;2.40;76.60;;;;;;5084833;28;20700;-63
2024/01/07 01:07:51;;;;;;;12.03;10.60;;;2.40;76.70;;;;;;5087720;28;20228;-65
2024/01/07 01:10:18;;;;;;;10.87;9.77;;;2.40;77.60;;;;;;5082260;28;20697;-65
2024/01/07 01:12:45;;;;;;;11.43;10.33;;;2.30;77.30;;;;;;5082385;28;20251;-65
2024/01/07 01:15:11;;;;;;;11.73;10.63;;;2.40;77.30;;;;;;5083088;28;20225;-64
2024/01/07 01:17:38;;;;;;;10.97;9.87;;;2.50;77.00;;;;;;5085836;28;20246;-65
2024/01/07 01:20:05;;;;;;;11.53;10.27;;;2.50;77.30;;;;;;5087116;28;20300;-65
2024/01/07 01:22:31;;;;;;;11.27;10.17;;;2.40;77.80;;;;;;5083587;28;20200;-64
2024/01/07 01:24:58;;;;;;;11.43;10.10;;;2.40;77.60;;;;;;5082103;28;20282;-64
2024/01/07 01:27:25;;;;;;;11.37;10.27;;;2.30;77.90;;;;;;5076594;28;20204;-65
2024/01/07 01:29:51;;;;;;;13.13;11.30;;;2.30;78.90;;;;;;5082023;28;20225;-63
2024/01/07 01:32:18;;;;;;;11.60;10.43;;;2.40;77.70;;;;;;5088098;28;20204;-64
2024/01/07 01:34:45;;;;;;;12.63;10.87;;;2.40;77.80;;;;;;5076117;28;20203;-65
2024/01/07 01:37:12;;;;;;;11.57;10.47;;;2.30;77.80;;;;;;5076869;28;20736;-64
2024/01/07 01:39:38;;;;;;;11.17;10.03;;;2.30;78.40;;;;;;5084491;28;20681;-64
2024/01/07 01:42:05;;;;;;;11.43;10.33;;;2.30;77.80;;;;;;5083243;28;20262;-64
2024/01/07 01:44:31;;;;;;;12.27;10.37;;;2.30;78.00;;;;;;5081856;28;20228;-65
2024/01/07 01:47:00;;;;;;;12.27;11.07;;;2.30;77.90;;;;;;5084074;28;20220;-65
2024/01/07 01:49:26;;;;;;;11.87;10.63;;;2.30;78.90;;;;;;5083439;28;20236;-64
2024/01/07 01:51:53;;;;;;;11.53;10.37;;;2.20;78.90;;;;;;5085379;28;20642;-64
2024/01/07 01:54:20;;;;;;;11.43;10.33;;;2.20;78.80;;;;;;5083752;28;20215;-64
2024/01/07 01:56:46;;;;;;;11.63;10.43;;;2.20;78.90;;;;;;5081066;28;20246;-64
2024/01/07 01:59:13;;;;;;;11.03;10.00;;;2.20;78.90;;;;;;5081080;28;20228;-64
2024/01/07 02:01:39;;;;;;;11.17;10.03;;;2.20;79.40;;;;;;5088063;28;20664;-65
2024/01/07 02:04:06;;;;;;;11.57;10.37;;;2.30;78.90;;;;;;5081813;28;20743;-65
2024/01/07 02:06:32;;;;;;;10.73;9.73;;;2.40;78.30;;;;;;5086233;28;20273;-65
2024/01/07 02:08:59;;;;;;;10.77;9.60;;;2.30;78.10;;;;;;5083612;28;20249;-64
2024/01/07 02:11:26;;;;;;;10.27;9.27;;;2.30;78.10;;;;;;5082990;28;20232;-64
2024/01/07 02:13:52;;;;;;;10.10;9.17;;;2.30;78.50;;;;;;5083219;28;20648;-64
2024/01/07 02:16:19;;;;;;;11.20;10.10;;;2.30;77.50;;;;;;5085052;28;20255;-65
2024/01/07 02:18:45;;;;;;;10.97;9.97;;;2.20;78.40;;;;;;5081627;28;20240;-65
2024/01/07 02:21:12;;;;;;;10.60;9.53;;;2.20;78.90;;;;;;5084666;28;20686;-65
2024/01/07 02:23:38;;;;;;;11.00;9.70;;;2.20;78.90;;;;;;5086791;28;20208;-65
2024/01/07 02:26:05;;;;;;;10.73;9.73;;;2.30;78.90;;;;;;5086613;28;20259;-64
2024/01/07 02:28:31;;;;;;;10.40;9.40;;;2.20;78.90;;;;;;5088325;28;20217;-65
2024/01/07 02:30:58;;;;;;;9.73;8.83;;;2.20;78.90;;;;;;5082724;28;20246;-65
2024/01/07 02:33:24;;;;;;;10.93;9.93;;;2.30;79.20;;;;;;5084562;28;20207;-63
2024/01/07 02:35:51;;;;;;;9.10;8.30;;;2.30;78.80;;;;;;5082053;28;20221;-65
2024/01/07 02:38:17;;;;;;;9.60;8.70;;;2.40;78.60;;;;;;5082084;28;20199;-65
2024/01/07 02:40:44;;;;;;;9.77;8.87;;;2.30;78.10;;;;;;5084247;28;20236;-64
2024/01/07 02:43:10;;;;;;;9.73;8.73;;;2.40;78.00;;;;;;5084762;28;20251;-65
2024/01/07 02:45:37;;;;;;;9.77;8.87;;;2.40;77.70;;;;;;5080849;28;20290;-64
2024/01/07 02:48:03;;;;;;;10.50;9.53;;;2.30;77.70;;;;;;5080740;28;20577;-64
2024/01/07 02:50:30;;;;;;;10.07;9.07;;;2.20;78.90;;;;;;5082242;28;20254;-65
2024/01/07 02:52:56;;;;;;;9.80;8.90;;;2.30;78.90;;;;;;5083246;28;20219;-65
2024/01/07 02:55:23;;;;;;;9.83;8.83;;;2.30;78.70;;;;;;5085937;28;20259;-64
2024/01/07 02:57:49;;;;;;;10.07;9.13;;;2.20;78.90;;;;;;5078662;28;20251;-65
2024/01/07 03:00:16;;;;;;;10.20;9.20;;;2.20;79.60;;;;;;5077154;28;20208;-64
2024/01/07 03:02:42;;;;;;;10.87;9.77;;;2.10;78.80;;;;;;5079746;28;20258;-65
2024/01/07 03:05:09;;;;;;;9.60;8.70;;;2.20;78.90;;;;;;5080081;28;20726;-65
2024/01/07 03:07:35;;;;;;;10.63;9.63;;;2.20;78.90;;;;;;5085241;28;20211;-64
2024/01/07 03:10:02;;;;;;;9.37;8.50;;;2.30;78.50;;;;;;5083590;28;20223;-64
2024/01/07 03:12:28;;;;;;;9.80;8.80;;;2.40;78.60;;;;;;5077644;28;20198;-65
2024/01/07 03:14:55;;;;;;;8.97;8.17;;;2.30;77.70;;;;;;5075898;28;20257;-64
2024/01/07 03:17:22;;;;;;;10.30;9.30;;;2.30;78.90;;;;;;5084096;28;20281;-65
2024/01/07 03:19:49;;;;;;;9.80;8.90;;;2.30;78.00;;;;;;5079553;28;20211;-64
2024/01/07 03:22:15;;;;;;;9.40;8.50;;;2.40;78.10;;;;;;5084869;28;20232;-63
2024/01/07 03:24:42;;;;;;;10.07;9.10;;;2.40;77.90;;;;;;5079465;28;20231;-65
2024/01/07 03:27:08;;;;;;;9.10;8.30;;;2.40;77.80;;;;;;5079704;28;20264;-64
2024/01/07 03:29:36;;;;;;;9.10;8.20;;;2.40;77.80;;;;;;5082528;28;20320;-63
2024/01/07 03:32:02;;;;;;;10.17;9.17;;;2.40;78.10;;;;;;5085528;28;20291;-65
2024/01/07 03:34:29;;;;;;;9.63;8.73;;;2.30;77.90;;;;;;5082134;28;20200;-65
2024/01/07 03:36:55;;;;;;;10.97;9.90;;;2.40;78.30;;;;;;5081299;28;20225;-64
2024/01/07 03:39:22;;;;;;;9.77;8.87;;;2.30;77.30;;;;;;5080536;28;20201;-65
2024/01/07 03:41:49;;;;;;;9.23;8.33;;;2.40;77.80;;;;;;5083316;28;20273;-64
2024/01/07 03:44:15;;;;;;;10.10;9.17;;;2.40;78.80;;;;;;5083406;28;20236;-65
2024/01/07 03:46:42;;;;;;;9.70;8.80;;;2.40;78.10;;;;;;5079536;28;20256;-64
2024/01/07 03:49:08;;;;;;;10.03;9.10;;;2.40;78.10;;;;;;5082271;28;20235;-65
2024/01/07 03:51:35;;;;;;;10.17;9.27;;;2.30;77.40;;;;;;5075667;28;20217;-64
2024/01/07 03:54:01;;;;;;;10.03;9.03;;;2.30;78.60;;;;;;5079519;28;20232;-64
2024/01/07 03:56:28;;;;;;;9.40;8.57;;;2.40;78.20;;;;;;5083785;28;20255;-63
2024/01/07 03:58:54;;;;;;;9.27;8.43;;;2.30;78.20;;;;;;5080328;28;20197;-64
2024/01/07 04:01:21;;;;;;;10.67;9.63;;;2.30;78.80;;;;;;5079618;28;20685;-64
2024/01/07 04:03:48;;;;;;;10.00;9.13;;;2.30;77.80;;;;;;5081749;28;20200;-64
2024/01/07 04:06:14;;;;;;;9.37;8.47;;;2.30;78.90;;;;;;5076428;28;20229;-64
2024/01/07 04:08:41;;;;;;;9.83;8.93;;;2.30;78.70;;;;;;5079138;28;20316;-64
2024/01/07 04:11:07;;;;;;;10.17;9.17;;;2.30;78.50;;;;;;5080616;28;20694;-65
2024/01/07 04:13:34;;;;;;;10.77;9.67;;;2.20;78.90;;;;;;5080957;28;20228;-64
2024/01/07 04:16:00;;;;;;;10.47;9.47;;;2.20;79.30;;;;;;5084900;28;20593;-64
2024/01/07 04:18:27;;;;;;;9.90;9.00;;;2.20;79.50;;;;;;5081149;28;20890;-64
2024/01/07 04:20:53;;;;;;;10.63;9.63;;;2.10;79.10;;;;;;5079160;28;20256;-64
2024/01/07 04:23:20;;;;;;;10.83;9.83;;;2.10;80.20;;;;;;5083601;28;20247;-64
2024/01/07 04:25:47;;;;;;;10.37;9.43;;;2.20;79.80;;;;;;5079337;28;20236;-64
2024/01/07 04:28:13;;;;;;;10.67;9.67;;;2.10;78.80;;;;;;5087322;28;20309;-64
2024/01/07 04:30:40;;;;;;;10.73;9.70;;;2.10;79.80;;;;;;5081998;28;20232;-63
2024/01/07 04:33:06;;;;;;;10.30;9.37;;;2.20;79.30;;;;;;5080934;28;20262;-64
2024/01/07 04:35:34;;;;;;;10.27;9.37;;;2.20;79.50;;;;;;5089312;28;20706;-64
2024/01/07 04:38:00;;;;;;;10.73;9.67;;;2.10;79.80;;;;;;5073883;28;20212;-64
2024/01/07 04:40:27;;;;;;;10.33;9.23;;;2.10;80.10;;;;;;5090004;28;20621;-64
2024/01/07 04:42:53;;;;;;;10.10;9.10;;;2.20;79.70;;;;;;5083561;28;20239;-64
2024/01/07 04:45:19;;;;;;;10.33;9.33;;;2.10;79.10;;;;;;5088617;28;20255;-65
2024/01/07 04:47:46;;;;;;;10.37;9.47;;;2.10;80.00;;;;;;5086173;28;20736;-64
2024/01/07 04:50:13;;;;;;;11.40;10.20;;;2.10;79.80;;;;;;5077625;28;20243;-63
2024/01/07 04:52:40;;;;;;;10.67;9.63;;;2.10;79.70;;;;;;5081868;28;20224;-64
2024/01/07 04:55:07;;;;;;;10.87;9.87;;;2.00;80.30;;;;;;5082452;28;20224;-64
2024/01/07 04:57:33;;;;;;;9.93;9.03;;;2.00;80.00;;;;;;5078582;28;20291;-65
2024/01/07 05:00:00;;;;;;;11.40;10.23;;;2.10;80.70;;;;;;5085720;28;20232;-64
2024/01/07 05:02:26;;;;;;;11.03;9.80;;;2.10;80.50;;;;;;5084039;28;20258;-64
2024/01/07 05:04:53;;;;;;;10.60;9.57;;;2.00;81.00;;;;;;5083520;28;20261;-64
2024/01/07 05:07:19;;;;;;;9.67;8.77;;;2.00;80.60;;;;;;5077008;28;20305;-63
2024/01/07 05:09:46;;;;;;;10.63;9.63;;;2.10;80.00;;;;;;5082080;28;20220;-64
2024/01/07 05:12:12;;;;;;;10.77;9.67;;;2.10;80.00;;;;;;5078906;28;20231;-65
2024/01/07 05:14:39;;;;;;;10.70;9.70;;;2.10;80.20;;;;;;5078836;28;20247;-65
2024/01/07 05:17:05;;;;;;;10.00;9.00;;;2.10;80.20;;;;;;5081653;28;20634;-64
2024/01/07 05:19:32;;;;;;;10.93;9.83;;;2.10;81.00;;;;;;5079727;28;20263;-64
2024/01/07 05:21:58;;;;;;;11.17;9.97;;;2.00;80.10;;;;;;5079351;28;20247;-65
2024/01/07 05:24:25;;;;;;;10.60;9.60;;;2.10;80.70;;;;;;5078584;28;20230;-65
2024/01/07 05:26:51;;;;;;;11.17;10.07;;;2.10;80.30;;;;;;5080933;28;20730;-64
2024/01/07 05:29:18;;;;;;;9.70;8.77;;;2.10;80.60;;;;;;5084329;28;20255;-65
2024/01/07 05:31:44;;;;;;;10.30;9.20;;;2.10;80.10;;;;;;5079499;28;20309;-64
2024/01/07 05:34:11;;;;;;;9.80;8.87;;;2.10;80.00;;;;;;5077421;28;20240;-64
2024/01/07 05:36:38;;;;;;;10.33;9.30;;;2.10;79.90;;;;;;5080453;28;20709;-64
2024/01/07 05:39:04;;;;;;;11.10;10.00;;;2.20;79.90;;;;;;5080267;28;20577;-64
2024/01/07 05:41:32;;;;;;;10.10;9.20;;;2.10;80.20;;;;;;5085328;28;20238;-64
2024/01/07 05:43:59;;;;;;;10.00;9.00;;;2.10;81.00;;;;;;5081536;28;20243;-63
2024/01/07 05:46:25;;;;;;;10.50;9.40;;;2.10;80.80;;;;;;5087703;28;20259;-64
2024/01/07 05:48:52;;;;;;;10.90;9.90;;;2.10;80.60;;;;;;5081687;28;20771;-64
2024/01/07 05:51:18;;;;;;;9.73;8.73;;;2.10;80.30;;;;;;5081384;28;20244;-64
2024/01/07 05:53:45;;;;;;;9.67;8.67;;;2.20;80.70;;;;;;5086090;28;20607;-64
2024/01/07 05:56:11;;;;;;;9.83;8.93;;;2.20;80.40;;;;;;5084626;28;20259;-63
2024/01/07 05:58:38;;;;;;;8.63;7.77;;;2.20;79.20;;;;;;5081396;28;20263;-63
2024/01/07 06:01:05;;;;;;;9.10;8.20;;;2.20;79.70;;;;;;5080886;28;20200;-64
2024/01/07 06:03:31;;;;;;;9.40;8.50;;;2.20;79.80;;;;;;5082028;28;20208;-64
2024/01/07 06:05:58;;;;;;;9.80;8.90;;;2.20;79.40;;;;;;5081350;28;20727;-64
2024/01/07 06:08:24;;;;;;;9.33;8.53;;;2.20;78.90;;;;;;5083498;28;20204;-64
2024/01/07 06:10:51;;;;;;;8.33;7.53;;;2.30;79.30;;;;;;5084248;28;20667;-64
2024/01/07 06:13:18;;;;;;;8.53;7.73;;;2.30;78.90;;;;;;5082849;28;20231;-65
2024/01/07 06:15:44;;;;;;;9.73;8.73;;;2.30;78.90;;;;;;5081980;28;20251;-63
2024/01/07 06:18:11;;;;;;;8.80;7.97;;;2.20;78.90;;;;;;5075284;28;20286;-64
2024/01/07 06:20:37;;;;;;;9.03;8.13;;;2.10;79.40;;;;;;5082623;28;20200;-64
2024/01/07 06:23:03;;;;;;;8.77;7.87;;;2.20;80.00;;;;;;5078925;28;20316;-64
2024/01/07 06:25:29;;;;;;;9.33;8.43;;;2.10;80.20;;;;;;5083672;28;20231;-64
2024/01/07 06:27:56;;;;;;;8.67;7.87;;;2.10;79.80;;;;;;5084082;28;20235;-64
2024/01/07 06:30:22;;;;;;;9.00;8.20;;;2.20;80.00;;;;;;5082643;28;20312;-64
2024/01/07 06:32:49;;;;;;;7.90;7.10;;;2.20;79.50;;;;;;5080779;28;20201;-64
2024/01/07 06:35:15;;;;;;;8.70;7.90;;;2.10;79.20;;;;;;5079950;28;20257;-64
2024/01/07 06:37:42;;;;;;;8.83;7.93;;;2.20;80.70;;;;;;5081968;28;20212;-64
2024/01/07 06:40:09;;;;;;;7.83;7.23;;;2.30;79.30;;;;;;5084111;28;20199;-64
2024/01/07 06:42:36;;;;;;;8.43;7.57;;;2.20;79.40;;;;;;5082523;28;20240;-64
2024/01/07 06:45:03;;;;;;;8.30;7.50;;;2.20;79.00;;;;;;5073044;28;21262;-64
2024/01/07 06:47:29;;;;;;;7.83;7.13;;;2.20;79.80;;;;;;5082458;28;20215;-64
2024/01/07 06:49:55;;;;;;;8.77;7.90;;;2.10;79.70;;;;;;5083746;28;20723;-65
2024/01/07 06:52:22;;;;;;;8.67;7.87;;;2.20;79.60;;;;;;5081970;28;20229;-63
2024/01/07 06:54:48;;;;;;;8.10;7.30;;;2.20;79.60;;;;;;5078228;28;20297;-64
2024/01/07 06:57:15;;;;;;;7.87;7.17;;;2.20;79.30;;;;;;5080340;28;20231;-64
2024/01/07 06:59:42;;;;;;;8.40;7.60;;;2.30;78.90;;;;;;5081014;28;20208;-64
2024/01/07 07:02:08;;;;;;;8.23;7.53;;;2.20;78.40;;;;;;5080597;28;20236;-64
2024/01/07 07:04:35;;;;;;;7.83;7.10;;;2.20;78.90;;;;;;5085630;28;20234;-64
2024/01/07 07:07:01;;;;;;;7.40;6.70;;;2.10;79.30;;;;;;5084389;28;20223;-64
2024/01/07 07:09:27;;;;;;;7.47;6.77;;;2.10;78.80;;;;;;5080279;28;20204;-63
2024/01/07 07:11:54;;;;;;;8.67;7.33;;;2.10;78.80;;;;;;5087553;28;20208;-65
2024/01/07 07:14:21;;;;;;;7.67;6.90;;;2.20;78.90;;;;;;5083874;28;20204;-63
2024/01/07 07:16:47;;;;;;;9.07;7.00;;;2.10;78.80;;;;;;5082700;28;20220;-64
2024/01/07 07:19:15;;;;;;;8.37;7.57;;;2.10;79.00;;;;;;5084084;28;20228;-64
2024/01/07 07:21:41;;;;;;;8.23;7.43;;;2.20;78.90;;;;;;5072223;28;20215;-63
2024/01/07 07:24:08;;;;;;;8.00;7.27;;;2.20;78.90;;;;;;5072517;28;20231;-64
2024/01/07 07:26:35;;;;;;;8.73;7.93;;;2.10;79.40;;;;;;5082057;28;20256;-64
2024/01/07 07:29:02;;;;;;;8.67;7.77;;;2.10;79.80;;;;;;5078709;28;20678;-64
2024/01/07 07:31:28;;;;;;;8.03;7.27;;;2.10;80.00;;;;;;5081631;28;20223;-64
2024/01/07 07:33:55;;;;;;;8.93;8.07;;;2.10;79.50;;;;;;5082415;28;20235;-64
2024/01/07 07:36:21;;;;;;;8.13;7.33;;;2.10;79.50;;;;;;5079734;28;20252;-64
2024/01/07 07:38:48;;;;;;;8.23;7.53;;;2.00;79.30;;;;;;5080511;28;20277;-64
2024/01/07 07:41:14;;;;;;;8.47;7.67;;;2.00;79.80;;;;;;5079684;28;20205;-64
2024/01/07 07:43:41;;;;;;;8.67;7.87;;;2.20;79.90;;;;;;5071494;28;20603;-64
2024/01/07 07:46:08;;;;;;;8.60;7.80;;;2.30;78.90;;;;;;5073565;28;20377;-65
2024/01/07 07:48:34;;;;;;;9.50;8.00;;;2.20;78.80;;;;;;5078593;28;20597;-65
2024/01/07 07:51:01;;;;;;;9.20;8.30;;;2.10;78.80;;;;;;5078975;28;20255;-63
2024/01/07 07:53:27;;;;;;;8.77;7.87;;;2.10;78.80;;;;;;5081646;28;20196;-64
2024/01/07 07:55:54;;;;;;;9.27;8.07;;;2.10;78.90;;;;;;5082216;28;20234;-64
2024/01/07 07:58:21;;;;;;;9.63;8.63;;;2.00;79.90;;;;;;5082454;28;20211;-65
2024/01/07 08:00:47;;;;;;;8.93;8.03;;;2.00;79.00;;;;;;5079430;28;20215;-63
2024/01/07 08:03:14;;;;;;;9.67;8.67;;;1.90;80.00;;;;;;5080624;28;20269;-64
2024/01/07 08:05:41;;;;;;;9.13;8.27;;;2.00;79.70;;;;;;5083049;28;20231;-64
2024/01/07 08:08:08;;;;;;;9.30;8.30;;;2.00;79.60;;;;;;5089911;28;20218;-65
2024/01/07 08:10:35;;;;;;;8.70;7.90;;;1.90;79.10;;;;;;5078637;28;20260;-65
2024/01/07 08:13:01;;;;;;;8.70;7.80;;;2.00;80.10;;;;;;5086671;28;20207;-65
2024/01/07 08:15:28;;;;;;;9.53;8.63;;;1.80;80.20;;;;;;5081191;28;20586;-65
2024/01/07 08:17:54;;;;;;;9.93;8.43;;;1.90;80.70;;;;;;5082384;28;20241;-64
2024/01/07 08:20:21;;;;;;;9.70;8.70;;;2.10;80.40;;;;;;5083358;28;20266;-65
2024/01/07 08:22:48;;;;;;;8.33;7.53;;;2.20;80.10;;;;;;5074555;28;20262;-65
2024/01/07 08:25:14;;;;;;;8.77;7.93;;;2.20;78.90;;;;;;5078601;28;20263;-64
2024/01/07 08:27:41;;;;;;;8.83;7.90;;;2.10;78.00;;;;;;5083211;28;20693;-65
2024/01/07 08:30:07;;;;;;;8.87;8.07;;;2.10;78.80;;;;;;5083960;28;20256;-64
2024/01/07 08:32:34;;;;;;;8.80;7.77;;;2.10;78.60;;;;;;5083717;28;20747;-64
2024/01/07 08:35:01;;;;;;;7.70;7.00;;;2.20;78.30;;;;;;5084761;28;20323;-64
2024/01/07 08:37:30;;;;;;;8.97;7.50;;;2.00;77.80;;;;;;5076869;28;20200;-64
2024/01/07 08:39:56;;;;;;;8.80;7.90;;;2.00;77.00;;;;;;5086453;28;20204;-64
2024/01/07 08:42:23;;;;;;;8.53;7.63;;;2.00;76.70;;;;;;5084486;28;20228;-65
2024/01/07 08:44:49;;;;;;;9.43;8.50;;;1.90;78.00;;;;;;5079516;28;20199;-64
2024/01/07 08:47:16;;;;;;;9.37;8.37;;;1.90;78.90;;;;;;5080316;28;20239;-64
2024/01/07 08:49:43;;;;;;;9.13;8.23;;;2.00;78.70;;;;;;5082887;28;20278;-64
2024/01/07 08:52:09;;;;;;;9.53;8.33;;;1.90;78.40;;;;;;5072498;28;20617;-65
2024/01/07 08:54:36;;;;;;;8.17;7.40;;;2.00;78.70;;;;;;5080029;28;20636;-65
2024/01/07 08:57:02;;;;;;;9.10;8.17;;;2.00;77.20;;;;;;5076462;28;20254;-64
2024/01/07 08:59:29;;;;;;;9.23;8.30;;;2.00;77.20;;;;;;5076729;28;20238;-65
2024/01/07 09:01:55;;;;;;;9.97;8.70;;;2.10;77.40;;;;;;5076116;28;20205;-65
2024/01/07 09:04:22;;;;;;;10.23;8.43;;;2.10;77.80;;;;;;5081998;28;20206;-65
2024/01/07 09:06:48;;;;;;;9.67;8.23;;;2.10;77.80;;;;;;5077299;28;20256;-65
2024/01/07 09:09:15;;;;;;;10.13;9.13;;;2.10;77.20;;;;;;5082651;28;20217;-64
2024/01/07 09:11:41;;;;;;;10.83;9.53;;;2.10;77.90;;;;;;5081914;28;20231;-64
2024/01/07 09:14:08;;;;;;;10.73;9.50;;;2.10;77.90;;;;;;5076206;28;20299;-64
2024/01/07 09:16:34;;;;;;;9.17;8.20;;;2.20;78.40;;;;;;5080397;28;20232;-64
2024/01/07 09:19:01;;;;;;;9.83;8.27;;;2.30;77.60;;;;;;5074357;28;20213;-64
2024/01/07 09:21:28;;;;;;;10.07;8.30;;;2.20;77.30;;;;;;5081496;28;20211;-64
2024/01/07 09:23:54;;;;;;;9.63;8.33;;;2.30;77.50;;;;;;5079111;28;20209;-64
2024/01/07 09:26:21;;;;;;;10.43;8.17;;;2.20;76.70;;;;;;5074935;28;20255;-64
2024/01/07 09:28:47;;;;;;;11.23;9.40;;;2.20;78.20;;;;;;5073809;28;20214;-64
2024/01/07 09:31:15;;;;;;;13.67;11.43;;;2.30;78.90;;;;;;5076465;28;20256;-64
2024/01/07 09:33:41;;;;;;;12.03;10.27;;;2.40;78.10;;;;;;5075099;28;20216;-63
2024/01/07 09:36:09;;;;;;;10.37;9.27;;;2.40;76.90;;;;;;5080572;28;20608;-64
2024/01/07 09:38:35;;;;;;;11.53;9.17;;;2.40;77.30;;;;;;5072736;28;20300;-64
2024/01/07 09:41:02;;;;;;;9.70;8.70;;;2.50;76.30;;;;;;5076789;28;20197;-64
2024/01/07 09:43:29;;;;;;;11.70;9.90;;;2.40;76.80;;;;;;5086763;28;20231;-64
2024/01/07 09:45:55;;;;;;;10.50;9.37;;;2.30;76.70;;;;;;5078274;28;20256;-65
2024/01/07 09:48:22;;;;;;;10.47;8.73;;;2.20;76.70;;;;;;5076509;28;20273;-64
2024/01/07 09:50:48;;;;;;;10.33;9.23;;;2.20;76.60;;;;;;5082568;28;20260;-65
2024/01/07 09:53:15;;;;;;;10.30;9.20;;;2.30;78.00;;;;;;5074976;28;20244;-65
2024/01/07 09:55:41;;;;;;;10.10;8.97;;;2.30;77.10;;;;;;5063139;28;20228;-68
2024/01/07 09:58:08;;;;;;;11.83;10.67;;;2.30;77.00;;;;;;5079740;28;20558;-64
2024/01/07 10:00:35;;;;;;;10.07;8.90;;;2.40;77.40;;;;;;5075830;28;20718;-64
2024/01/07 10:03:02;;;;;;;9.97;8.97;;;2.30;76.70;;;;;;5076611;28;20629;-65
2024/01/07 10:05:29;;;;;;;11.23;9.33;;;2.30;76.80;;;;;;5084094;28;20324;-64
2024/01/07 10:07:57;;;;;;;11.10;9.30;;;2.30;77.40;;;;;;5072342;28;20240;-65
2024/01/07 10:10:23;;;;;;;11.70;9.63;;;2.30;76.80;;;;;;5066309;28;20580;-65
2024/01/07 10:12:52;;;;;;;10.97;9.80;;;2.30;77.20;;;;;;5066202;28;20211;-65
2024/01/07 10:15:19;;;;;;;10.67;9.27;;;2.20;77.10;;;;;;5063667;28;20320;-65
2024/01/07 10:17:48;;;;;;;9.57;8.57;;;2.30;77.30;;;;;;5075756;28;20220;-64
2024/01/07 10:20:14;;;;;;;11.13;8.83;;;2.30;76.10;;;;;;5083510;28;20291;-65
2024/01/07 10:22:41;;;;;;;10.27;9.17;;;2.40;75.60;;;;;;5079746;28;20626;-65
2024/01/07 10:25:07;;;;;;;10.70;9.60;;;2.30;75.50;;;;;;5081705;28;20648;-65
2024/01/07 10:27:34;;;;;;;12.20;10.37;;;2.30;75.90;;;;;;5072353;28;20207;-65
2024/01/07 10:30:00;;;;;;;10.53;8.87;;;2.40;76.00;;;;;;5059044;28;20699;-64
2024/01/07 10:32:27;;;;;;;11.37;9.60;;;2.40;75.60;;;;;;5074839;28;20659;-64
2024/01/07 10:34:53;;;;;;;9.83;8.83;;;2.40;75.90;;;;;;5069202;28;20274;-64
2024/01/07 10:37:20;;;;;;;11.10;10.00;;;2.40;76.00;;;;;;5077518;28;20222;-65
2024/01/07 10:39:46;;;;;;;9.80;8.70;;;2.30;76.30;;;;;;5069830;28;20261;-65
2024/01/07 10:42:13;;;;;;;10.13;8.43;;;2.40;77.50;;;;;;5076751;28;20293;-62
2024/01/07 10:44:40;;;;;;;8.97;8.07;;;2.40;74.40;;;;;;5075155;28;20265;-63
2024/01/07 10:47:06;;;;;;;10.00;8.77;;;2.40;75.70;;;;;;5072901;28;20666;-63
2024/01/07 10:49:33;;;;;;;10.00;8.43;;;2.40;75.20;;;;;;5077517;28;20200;-62
2024/01/07 10:51:59;;;;;;;9.03;8.13;;;2.30;76.50;;;;;;5073842;28;20260;-64
2024/01/07 10:54:28;;;;;;;9.23;8.23;;;2.40;75.00;;;;;;5064428;28;20203;-63
2024/01/07 10:56:55;;;;;;;9.73;8.60;;;2.60;75.20;;;;;;5077200;28;20327;-64
2024/01/07 10:59:21;;;;;;;8.80;7.43;;;2.70;73.90;;;;;;5080080;28;20690;-64
2024/01/07 11:01:48;;;;;;;9.40;8.23;;;2.50;74.00;;;;;;5078618;28;20200;-62
2024/01/07 11:04:15;;;;;;;10.70;8.50;;;2.40;74.10;;;;;;5075772;28;20659;-63
2024/01/07 11:06:42;;;;;;;9.13;8.23;;;2.40;74.10;;;;;;5073026;28;20231;-62
2024/01/07 11:09:10;;;;;;;9.07;7.87;;;2.50;74.10;;;;;;5071622;28;20285;-63
2024/01/07 11:11:37;;;;;;;9.17;8.20;;;2.40;74.30;;;;;;5068239;28;20693;-63
2024/01/07 11:14:03;;;;;;;9.20;8.13;;;2.60;73.50;;;;;;5069697;28;20212;-63
2024/01/07 11:16:30;;;;;;;8.80;8.00;;;2.50;74.40;;;;;;5076511;28;20274;-63
2024/01/07 11:18:56;;;;;;;8.80;7.90;;;2.30;75.10;;;;;;5076599;28;20280;-64
2024/01/07 11:21:24;;;;;;;8.40;7.53;;;2.40;74.40;;;;;;5079881;28;20216;-63
2024/01/07 11:23:52;;;;;;;9.43;7.70;;;2.40;75.10;;;;;;5079193;28;20651;-64
2024/01/07 11:26:20;;;;;;;9.43;8.17;;;2.30;74.30;;;;;;5080046;28;20232;-64
2024/01/07 11:28:45;;;;;;;8.23;6.83;;;2.30;73.80;;;;;;5080372;28;20207;-64
2024/01/07 11:31:12;;;;;;;8.57;7.70;;;2.30;74.20;;;;;;5078049;28;20234;-64
2024/01/07 11:33:39;;;;;;;8.07;7.17;;;2.40;74.10;;;;;;5087129;28;20208;-65
2024/01/07 11:36:05;;;;;;;8.30;7.30;;;2.30;74.40;;;;;;5082628;28;20258;-65
2024/01/07 11:38:31;;;;;;;8.60;7.47;;;2.20;74.90;;;;;;5085832;28;20712;-64
2024/01/07 11:40:58;;;;;;;7.60;6.90;;;2.10;75.30;;;;;;5083774;28;20196;-64
2024/01/07 11:43:25;;;;;;;7.97;7.17;;;2.30;75.00;;;;;;5085474;28;20253;-64
2024/01/07 11:45:51;;;;;;;8.80;7.90;;;2.20;74.80;;;;;;5077345;28;20228;-64
2024/01/07 11:48:18;;;;;;;8.33;7.53;;;2.10;75.60;;;;;;5080120;28;20636;-64
2024/01/07 11:50:44;;;;;;;7.80;7.10;;;2.10;75.00;;;;;;5086451;28;20239;-64
2024/01/07 11:53:11;;;;;;;9.47;8.20;;;1.90;73.40;;;;;;5083983;28;20281;-64
2024/01/07 11:55:37;;;;;;;8.53;7.70;;;2.00;75.00;;;;;;5086501;28;20258;-64
2024/01/07 11:58:04;;;;;;;8.43;7.63;;;1.90;75.60;;;;;;5085294;28;20208;-64
2024/01/07 12:00:31;;;;;;;7.83;7.10;;;2.10;75.30;;;;;;5076901;28;20758;-63
2024/01/07 12:02:57;;;;;;;9.73;7.37;;;2.10;74.40;;;;;;5086700;28;20234;-63
2024/01/07 12:05:23;;;;;;;8.30;7.50;;;2.10;73.60;;;;;;5076838;28;20219;-63
2024/01/07 12:07:50;;;;;;;10.23;9.20;;;1.90;73.40;;;;;;5077686;28;20234;-63
2024/01/07 12:10:17;;;;;;;13.40;12.10;;;1.90;75.30;;;;;;5077003;28;20235;-63
2024/01/07 12:12:44;;;;;;;9.30;8.47;;;2.20;76.40;;;;;;5082003;28;20342;-63
2024/01/07 12:15:11;;;;;;;8.70;7.80;;;2.30;74.10;;;;;;5052211;28;20707;-64
2024/01/07 12:17:38;;;;;;;8.93;8.03;;;2.10;72.30;;;;;;5072169;28;20593;-64
2024/01/07 12:20:04;;;;;;;9.10;8.20;;;2.10;74.40;;;;;;5071392;28;20215;-64
2024/01/07 12:22:31;;;;;;;9.33;8.33;;;2.10;73.50;;;;;;5057137;28;20617;-64
2024/01/07 12:24:57;;;;;;;7.70;6.97;;;2.10;73.10;;;;;;5059641;28;20213;-64
2024/01/07 12:27:25;;;;;;;9.17;8.13;;;2.00;73.60;;;;;;5067287;28;20658;-63
2024/01/07 12:29:51;;;;;;;8.97;8.07;;;2.10;73.20;;;;;;5062560;28;20205;-64
2024/01/07 12:32:18;;;;;;;9.20;8.30;;;2.00;73.80;;;;;;5069199;28;20274;-62
2024/01/07 12:34:44;;;;;;;10.03;8.80;;;1.80;74.00;;;;;;5066900;28;20376;-64
2024/01/07 12:37:11;;;;;;;9.30;8.30;;;1.80;74.60;;;;;;5070713;28;20239;-64
2024/01/07 12:39:37;;;;;;;8.90;8.00;;;1.80;74.10;;;;;;5066801;28;20694;-64
2024/01/07 12:42:04;;;;;;;8.93;8.13;;;1.80;73.80;;;;;;5063945;28;20222;-64
2024/01/07 12:44:29;;;;;;;9.63;8.70;;;1.70;74.60;;;;;;5061676;28;20200;-65
2024/01/07 12:46:56;;;;;;;8.70;7.83;;;1.80;74.60;;;;;;5047203;28;20220;-64